Time;durP1;ratioP1;P1;durP2;ratioP2;P2;SDS_P1;SDS_P2;PMS_P1;PMS_P2;Temp;Humidity;BMP_temperature;BMP_pressure;BME280_temperature;BME280_humidity;BME280_pressure;Samples;Min_cycle;Max_cycle;Signal;HPM_P1;HPM_P2
2021/05/31 00:00:51;;;;;;;;;15.75;14.00;;;;;12.20;100.00;99938.56;3559254;40;14265;-48
2021/05/31 00:03:19;;;;;;;;;13.75;13.75;;;;;12.26;100.00;99932.78;3561008;40;14129;-48
2021/05/31 00:05:46;;;;;;;;;16.50;15.00;;;;;12.21;100.00;99932.22;3558776;40;14091;-48
2021/05/31 00:08:13;;;;;;;;;22.00;14.00;;;;;12.38;99.72;99926.63;3562082;40;14092;-48
2021/05/31 00:10:41;;;;;;;;;14.00;12.75;;;;;12.41;99.48;99929.09;3558964;40;14120;-48
2021/05/31 00:13:08;;;;;;;;;19.50;15.25;;;;;12.31;99.03;99925.28;3559574;40;14100;-48
2021/05/31 00:15:35;;;;;;;;;15.50;14.25;;;;;12.10;100.00;99921.28;3559288;40;14289;-48
2021/05/31 00:18:03;;;;;;;;;15.75;14.25;;;;;12.00;100.00;99921.84;3559281;40;14126;-46
2021/05/31 00:20:31;;;;;;;;;15.00;13.00;;;;;12.08;100.00;99919.56;3560276;40;14331;-52
2021/05/31 00:22:58;;;;;;;;;17.50;13.00;;;;;12.10;100.00;99932.06;3557907;40;14106;-47
2021/05/31 00:25:25;;;;;;;;;13.00;12.50;;;;;12.00;100.00;99929.06;3557685;40;14326;-48
2021/05/31 00:27:53;;;;;;;;;17.00;12.00;;;;;12.14;100.00;99933.56;3557318;40;14104;-50
2021/05/31 00:30:23;;;;;;;;;18.75;13.00;;;;;11.91;100.00;99933.22;3557426;40;14294;-49
2021/05/31 00:32:52;;;;;;;;;17.00;12.75;;;;;11.84;100.00;99932.69;3559188;40;14616;-48
2021/05/31 00:35:21;;;;;;;;;12.75;12.75;;;;;11.58;100.00;99945.06;3557653;40;14074;-47
2021/05/31 00:37:48;;;;;;;;;17.50;14.00;;;;;11.68;100.00;99939.16;3557594;40;14389;-47
2021/05/31 00:40:18;;;;;;;;;12.50;12.50;;;;;11.57;100.00;99935.28;3558555;40;14067;-47
2021/05/31 00:42:45;;;;;;;;;14.50;14.00;;;;;11.59;100.00;99933.38;3559793;40;14935;-46
2021/05/31 00:45:13;;;;;;;;;14.75;14.75;;;;;11.78;100.00;99932.22;3557111;40;14108;-48
2021/05/31 00:47:40;;;;;;;;;13.00;12.00;;;;;11.98;100.00;99934.56;3560256;40;14097;-47
2021/05/31 00:50:10;;;;;;;;;18.25;14.75;;;;;12.04;100.00;99934.16;3557182;40;14112;-49
2021/05/31 00:52:38;;;;;;;;;13.75;11.00;;;;;12.19;100.00;99912.59;3561939;40;14079;-47
2021/05/31 00:55:07;;;;;;;;;12.00;12.00;;;;;12.11;100.00;99912.25;3559633;40;14202;-48
2021/05/31 00:57:34;;;;;;;;;18.00;12.50;;;;;11.84;100.00;99904.94;3560758;40;14097;-46
2021/05/31 01:00:06;;;;;;;;;14.50;10.25;;;;;11.96;100.00;99904.19;3557063;40;14588;-46
2021/05/31 01:02:34;;;;;;;;;14.50;11.25;;;;;12.05;100.00;99914.34;3557971;40;14055;-48
2021/05/31 01:05:04;;;;;;;;;13.25;13.00;;;;;12.12;100.00;99908.59;3556710;40;14069;-47
2021/05/31 01:07:42;;;;;;;;;9.00;7.00;;;;;12.25;100.00;99893.38;3561524;40;14036;-48
2021/05/31 01:10:28;;;;;;;;;15.25;13.00;;;;;12.15;100.00;99886.88;3558434;40;14737;-48
2021/05/31 01:13:14;;;;;;;;;17.75;13.00;;;;;12.10;100.00;99879.09;3557206;40;14250;-48
2021/05/31 01:16:02;;;;;;;;;14.25;13.75;;;;;11.86;100.00;99876.16;3557061;40;14140;-49
2021/05/31 01:18:39;;;;;;;;;18.00;15.25;;;;;11.90;100.00;99876.81;3556245;40;14278;-49
2021/05/31 01:21:53;;;;;;;;;15.00;15.00;;;;;11.87;100.00;99869.78;3556639;40;14330;-45
2021/05/31 01:24:42;;;;;;;;;18.75;15.00;;;;;11.75;100.00;99884.88;3560561;40;14060;-46
2021/05/31 01:27:28;;;;;;;;;16.25;13.75;;;;;12.07;100.00;99864.00;3562188;40;14116;-49
2021/05/31 01:30:06;;;;;;;;;13.00;10.25;;;;;11.78;100.00;99865.84;3558617;40;14259;-46
2021/05/31 01:32:39;;;;;;;;;18.75;13.50;;;;;11.75;100.00;99874.09;3559173;40;14147;-50
2021/05/31 01:35:14;;;;;;;;;17.50;16.50;;;;;11.82;100.00;99864.69;3557284;40;14083;-47
2021/05/31 01:37:42;;;;;;;;;22.00;16.75;;;;;12.03;100.00;99866.97;3560448;40;14601;-46
2021/05/31 01:40:14;;;;;;;;;13.75;10.75;;;;;11.97;100.00;99870.94;3557759;40;14098;-46
2021/05/31 01:42:42;;;;;;;;;20.00;16.50;;;;;12.07;100.00;99864.00;3558929;40;14076;-47
2021/05/31 01:45:14;;;;;;;;;15.00;14.50;;;;;12.05;100.00;99865.06;3556580;40;14126;-47
2021/05/31 01:47:43;;;;;;;;;18.00;15.00;;;;;11.99;100.00;99863.63;3561494;40;14086;-46
2021/05/31 01:50:12;;;;;;;;;17.75;14.00;;;;;11.89;99.05;99865.19;3565416;40;14079;-49
2021/05/31 01:52:45;;;;;;;;;18.00;14.25;;;;;11.89;99.91;99857.13;3561344;40;14267;-47
2021/05/31 01:55:15;;;;;;;;;20.75;15.50;;;;;11.77;99.81;99855.16;3563222;40;14160;-49
2021/05/31 01:57:46;;;;;;;;;18.75;14.25;;;;;11.74;100.00;99853.56;3556186;40;14796;-46
2021/05/31 02:00:18;;;;;;;;;16.50;15.00;;;;;11.77;100.00;99855.16;3557829;40;14220;-46
2021/05/31 02:02:50;;;;;;;;;18.25;14.50;;;;;11.81;98.47;99851.31;3562511;40;14104;-47
2021/05/31 02:05:18;;;;;;;;;12.00;11.75;;;;;11.81;98.84;99852.19;3555904;40;14628;-50
2021/05/31 02:07:45;;;;;;;;;19.00;15.00;;;;;11.82;98.99;99848.56;3556054;40;14080;-49
2021/05/31 02:10:15;;;;;;;;;20.00;15.00;;;;;11.80;98.83;99837.03;3555886;40;14291;-48
2021/05/31 02:12:54;;;;;;;;;16.75;12.75;;;;;11.79;97.66;99843.34;3560572;40;14067;-46
2021/05/31 02:16:06;;;;;;;;;21.50;15.75;;;;;11.43;100.00;99844.72;3559113;40;14242;-48
2021/05/31 02:18:50;;;;;;;;;22.50;18.25;;;;;11.61;99.81;99840.03;3559461;40;14112;-47
2021/05/31 02:21:18;;;;;;;;;27.25;18.50;;;;;11.63;100.00;99846.16;3562085;40;14289;-48
2021/05/31 02:23:47;;;;;;;;;22.75;17.00;;;;;11.71;100.00;99839.44;3556878;40;14087;-48
2021/05/31 02:26:17;;;;;;;;;15.75;14.25;;;;;11.62;100.00;99836.38;3556702;40;14111;-48
2021/05/31 02:28:47;;;;;;;;;22.75;18.25;;;;;11.84;99.03;99833.16;3559360;40;14082;-46
2021/05/31 02:31:19;;;;;;;;;25.50;20.25;;;;;11.81;98.49;99835.19;3565809;40;14643;-48
2021/05/31 02:33:48;;;;;;;;;23.50;20.00;;;;;11.64;100.00;99841.66;3562389;40;14182;-47
2021/05/31 02:36:19;;;;;;;;;36.25;32.25;;;;;11.84;99.63;99840.38;3563758;40;14296;-49
2021/05/31 02:38:46;;;;;;;;;42.00;35.67;;;;;11.78;99.63;99835.38;3561859;40;14070;-50
2021/05/31 02:41:14;;;;;;;;;52.67;44.00;;;;;11.83;100.00;99835.97;3561543;40;9960;-48
2021/05/31 02:43:41;;;;;;;;;36.00;33.50;;;;;11.92;99.07;99837.22;3557862;40;10833;-50
2021/05/31 02:46:09;;;;;;;;;32.25;30.50;;;;;11.85;100.00;99837.59;3557448;40;14150;-46
2021/05/31 02:48:36;;;;;;;;;25.75;19.75;;;;;11.86;99.00;99828.56;3560341;40;14143;-49
2021/05/31 02:51:12;;;;;;;;;27.00;20.75;;;;;11.85;98.37;99836.72;3558189;40;14104;-51
2021/05/31 02:53:39;;;;;;;;;23.25;17.50;;;;;11.86;98.79;99823.19;3557830;40;14128;-51
2021/05/31 02:56:07;;;;;;;;;20.50;19.75;;;;;11.74;99.56;99833.84;3558209;40;14124;-48
2021/05/31 02:58:34;;;;;;;;;25.75;20.00;;;;;11.84;98.83;99824.22;3563988;40;14614;-47
2021/05/31 03:01:02;;;;;;;;;24.50;20.75;;;;;11.78;99.68;99817.41;3568062;40;14348;-49
2021/05/31 03:03:29;;;;;;;;;20.75;19.75;;;;;11.84;99.43;99825.09;3568064;40;14108;-48
2021/05/31 03:05:57;;;;;;;;;21.25;21.25;;;;;11.82;99.90;99831.53;3568178;40;14133;-49
2021/05/31 03:08:24;;;;;;;;;19.75;15.75;;;;;11.75;99.58;99827.53;3560490;40;14119;-48
2021/05/31 03:10:53;;;;;;;;;20.00;19.00;;;;;11.80;100.00;99828.09;3558249;40;14317;-49
2021/05/31 03:13:22;;;;;;;;;23.75;19.75;;;;;11.81;99.05;99824.44;3557503;40;14604;-51
2021/05/31 03:15:50;;;;;;;;;25.50;19.50;;;;;11.74;99.12;99829.34;3557966;40;14095;-49
2021/05/31 03:18:18;;;;;;;;;27.00;18.00;;;;;11.86;98.84;99833.09;3564731;40;14184;-49
2021/05/31 03:20:46;;;;;;;;;25.00;20.00;;;;;11.92;99.31;99827.31;3567518;40;14117;-51
2021/05/31 03:23:13;;;;;;;;;20.00;18.50;;;;;11.71;100.00;99829.53;3567624;40;14087;-50
2021/05/31 03:25:41;;;;;;;;;22.75;18.50;;;;;11.89;99.19;99827.50;3564906;40;14112;-50
2021/05/31 03:28:09;;;;;;;;;20.75;18.00;;;;;11.87;98.90;99832.13;3557953;40;14336;-49
2021/05/31 03:30:37;;;;;;;;;17.25;13.25;;;;;11.96;99.27;99826.16;3566542;40;14099;-50
2021/05/31 03:33:05;;;;;;;;;16.25;14.25;;;;;11.90;98.35;99833.75;3567642;40;14273;-49
2021/05/31 03:35:32;;;;;;;;;17.75;13.00;;;;;12.00;98.15;99827.66;3567412;40;14593;-49
2021/05/31 03:38:00;;;;;;;;;16.50;12.75;;;;;11.92;97.26;99824.63;3567052;40;14087;-47
2021/05/31 03:40:27;;;;;;;;;18.75;15.00;;;;;11.86;98.41;99833.09;3567556;40;14063;-51
2021/05/31 03:42:55;;;;;;;;;19.75;14.75;;;;;11.76;99.08;99831.94;3567714;40;14320;-48
2021/05/31 03:45:23;;;;;;;;;14.00;13.00;;;;;11.92;98.17;99826.44;3566671;40;14105;-48
2021/05/31 03:47:52;;;;;;;;;11.00;7.00;;;;;11.94;97.59;99829.91;3557865;40;14123;-49
2021/05/31 03:50:20;;;;;;;;;12.50;12.50;;;;;11.93;97.80;99829.06;3557756;40;14237;-49
2021/05/31 03:52:49;;;;;;;;;14.75;13.00;;;;;11.88;98.22;99828.50;3557856;40;14075;-49
2021/05/31 03:55:18;;;;;;;;;13.50;10.00;;;;;11.94;97.38;99832.59;3557913;40;14610;-52
2021/05/31 03:57:45;;;;;;;;;19.00;12.25;;;;;11.93;97.50;99831.75;3566486;40;14089;-50
2021/05/31 04:00:14;;;;;;;;;13.75;11.50;;;;;11.94;98.42;99829.91;3567324;40;14094;-48
2021/05/31 04:02:44;;;;;;;;;11.25;8.00;;;;;11.85;96.93;99832.22;3567686;40;14605;-47
2021/05/31 04:05:15;;;;;;;;;13.50;9.75;;;;;11.97;96.75;99840.47;3567140;40;14122;-49
2021/05/31 04:13:18;;;;;;;;;9.00;7.75;;;;;11.95;96.68;99832.50;3557409;40;14073;-48
2021/05/31 04:15:45;;;;;;;;;9.00;7.75;;;;;12.01;95.96;99831.25;3557501;40;14233;-47
2021/05/31 04:18:13;;;;;;;;;13.00;12.00;;;;;12.06;95.70;99840.75;3565283;40;14053;-49
2021/05/31 04:20:40;;;;;;;;;10.00;9.75;;;;;11.94;97.43;99828.09;3567452;40;14056;-49
2021/05/31 04:23:08;;;;;;;;;9.75;9.75;;;;;12.03;97.14;99830.19;3567173;40;14649;-48
2021/05/31 04:25:35;;;;;;;;;11.75;9.25;;;;;12.08;95.46;99833.44;3567520;40;14085;-48
2021/05/31 04:28:03;;;;;;;;;9.50;7.50;;;;;12.18;95.90;99824.75;3560803;40;14246;-48
2021/05/31 04:30:30;;;;;;;;;7.75;7.75;;;;;12.10;94.90;99836.03;3565334;40;14753;-47
2021/05/31 04:32:58;;;;;;;;;9.00;8.25;;;;;12.15;94.76;99833.88;3567561;40;14052;-48
2021/05/31 04:35:25;;;;;;;;;9.00;8.25;;;;;12.12;93.99;99827.84;3567642;40;14511;-50
2021/05/31 04:37:56;;;;;;;;;8.75;7.50;;;;;12.19;94.56;99829.16;3567150;40;14060;-48
2021/05/31 04:40:23;;;;;;;;;9.25;8.00;;;;;12.30;95.50;99826.63;3567207;40;14248;-47
2021/05/31 04:42:51;;;;;;;;;10.50;8.00;;;;;12.22;95.18;99820.91;3567365;40;14047;-51
2021/05/31 04:45:19;;;;;;;;;7.25;6.00;;;;;12.16;95.23;99832.06;3567425;40;14061;-46
2021/05/31 04:47:46;;;;;;;;;12.50;8.00;;;;;12.20;96.23;99828.22;3566280;40;14041;-50
2021/05/31 04:50:14;;;;;;;;;11.25;8.25;;;;;12.20;94.70;99833.59;3558232;40;14098;-50
2021/05/31 04:52:41;;;;;;;;;10.00;8.00;;;;;12.28;95.03;99828.56;3557113;40;14914;-47
2021/05/31 04:55:15;;;;;;;;;9.25;7.00;;;;;12.11;94.84;99826.97;3556950;40;14262;-47
2021/05/31 04:57:43;;;;;;;;;10.25;7.25;;;;;12.05;93.85;99839.00;3561138;40;14061;-49
2021/05/31 05:00:14;;;;;;;;;10.00;7.00;;;;;12.13;94.75;99829.56;3557490;40;14288;-49
2021/05/31 05:02:41;;;;;;;;;13.00;9.00;;;;;12.14;94.96;99837.56;3557228;40;14055;-48
2021/05/31 05:05:10;;;;;;;;;11.25;7.50;;;;;12.07;94.86;99834.38;3557451;40;14089;-48
2021/05/31 05:07:45;;;;;;;;;8.75;7.25;;;;;12.13;96.24;99835.81;3556904;40;14083;-46
2021/05/31 05:10:20;;;;;;;;;7.00;7.00;;;;;12.27;93.37;99837.63;3557497;40;14041;-49
2021/05/31 05:12:52;;;;;;;;;7.25;6.25;;;;;12.29;93.97;99828.44;3556653;40;13072;-46
2021/05/31 05:15:21;;;;;;;;;9.00;9.00;;;;;12.39;94.50;99835.94;3557480;40;14280;-51
2021/05/31 05:17:49;;;;;;;;;8.00;7.25;;;;;12.39;94.55;99825.16;3557121;40;14230;-47
2021/05/31 05:20:18;;;;;;;;;7.00;4.75;;;;;12.36;95.09;99836.13;3556928;40;14056;-48
2021/05/31 05:22:46;;;;;;;;;11.25;8.00;;;;;12.60;93.24;99825.53;3557320;40;14063;-47
2021/05/31 05:25:14;;;;;;;;;8.00;7.00;;;;;12.28;94.12;99832.13;3557430;40;14282;-48
2021/05/31 05:27:43;;;;;;;;;10.25;8.75;;;;;12.13;95.82;99829.56;3563444;40;14039;-47
2021/05/31 05:30:14;;;;;;;;;7.00;7.00;;;;;12.68;94.88;99832.13;3559788;40;14295;-49
2021/05/31 05:32:48;;;;;;;;;10.00;7.75;;;;;12.87;92.59;99837.13;3557124;40;14062;-49
2021/05/31 05:48:30;;;;;;;;;7.75;7.00;;;;;13.50;87.44;99840.84;3557017;40;14074;-49
2021/05/31 05:51:06;;;;;;;;;7.00;7.00;;;;;13.21;87.95;99842.88;3557191;40;14528;-48
2021/05/31 05:53:40;;;;;;;;;7.00;7.00;;;;;13.11;86.59;99841.78;3556762;40;14298;-50
2021/05/31 05:56:12;;;;;;;;;7.25;7.25;;;;;13.14;90.45;99844.28;3557266;40;14048;-50
2021/05/31 05:58:40;;;;;;;;;9.25;8.50;;;;;13.17;88.20;99846.75;3564218;40;14742;-49
2021/05/31 06:01:09;;;;;;;;;10.00;8.00;;;;;12.93;89.38;99847.50;3566825;40;14245;-48
2021/05/31 06:03:38;;;;;;;;;6.25;5.50;;;;;12.95;91.37;99847.38;3566854;40;14043;-50
2021/05/31 06:06:07;;;;;;;;;9.25;8.00;;;;;12.95;87.26;99852.75;3566960;40;14081;-49
2021/05/31 06:08:36;;;;;;;;;10.25;7.00;;;;;13.23;86.55;99846.31;3557020;40;14299;-51
2021/05/31 06:11:04;;;;;;;;;4.75;4.75;;;;;12.94;86.50;99846.50;3557054;40;14087;-49
2021/05/31 06:13:32;;;;;;;;;6.00;6.00;;;;;13.10;87.35;99849.00;3556698;40;14262;-49
2021/05/31 06:16:01;;;;;;;;;5.50;5.50;;;;;12.90;86.34;99860.28;3557048;40;14056;-49
2021/05/31 06:18:30;;;;;;;;;6.00;4.50;;;;;12.95;87.70;99852.75;3565606;40;14016;-51
2021/05/31 06:20:58;;;;;;;;;8.00;7.00;;;;;12.96;87.60;99852.66;3566657;40;14261;-48
2021/05/31 06:23:26;;;;;;;;;8.00;7.00;;;;;13.13;86.04;99847.94;3566797;40;14029;-51
2021/05/31 06:25:54;;;;;;;;;6.00;6.00;;;;;12.66;86.94;99854.75;3561654;40;14006;-48
2021/05/31 06:28:22;;;;;;;;;10.75;9.00;;;;;13.06;87.13;99842.13;3556515;40;14154;-49
2021/05/31 06:30:49;;;;;;;;;4.25;4.25;;;;;12.97;87.32;99848.13;3565816;40;14552;-49
2021/05/31 06:33:18;;;;;;;;;6.75;5.00;;;;;13.04;87.51;99848.59;3566723;40;14038;-49
2021/05/31 06:35:48;;;;;;;;;6.75;6.75;;;;;13.30;84.74;99847.66;3565137;40;14008;-52
2021/05/31 06:38:15;;;;;;;;;8.50;7.50;;;;;13.51;84.44;99847.13;3566706;40;14216;-51
2021/05/31 06:40:43;;;;;;;;;13.50;8.75;;;;;14.67;81.84;99849.38;3566690;40;14068;-47
2021/05/31 06:43:10;;;;;;;;;8.00;5.50;;;;;15.22;77.75;99848.78;3562541;40;14004;-52
2021/05/31 06:45:38;;;;;;;;;9.50;5.75;;;;;13.84;83.34;99844.66;3556086;40;14825;-53
2021/05/31 06:48:09;;;;;;;;;9.25;7.25;;;;;14.06;83.03;99843.13;3564267;40;14069;-51
2021/05/31 06:50:36;;;;;;;;;9.75;6.25;;;;;13.57;82.53;99839.44;3574737;40;14523;-53
2021/05/31 06:53:04;;;;;;;;;16.00;9.00;;;;;13.27;83.29;99845.19;3575932;40;14065;-50
2021/05/31 06:55:31;;;;;;;;;8.00;8.00;;;;;13.69;84.67;99847.63;3575909;40;14563;-51
2021/05/31 06:57:59;;;;;;;;;8.50;8.50;;;;;13.86;84.97;99851.81;3576047;40;14490;-53
2021/05/31 07:00:28;;;;;;;;;8.25;5.75;;;;;14.39;82.22;99844.28;3572872;40;14017;-52
2021/05/31 07:02:57;;;;;;;;;7.25;5.00;;;;;14.12;83.78;99847.22;3565910;40;14040;-52
2021/05/31 07:05:24;;;;;;;;;11.00;6.00;;;;;14.22;82.61;99854.50;3566232;40;14688;-51
2021/05/31 07:07:52;;;;;;;;;11.50;9.25;;;;;14.85;79.32;99857.91;3566245;40;14034;-53
2021/05/31 07:10:27;;;;;;;;;8.50;5.00;;;;;15.63;73.94;99855.47;3566412;40;14892;-53
2021/05/31 07:12:55;;;;;;;;;6.00;6.00;;;;;15.32;75.56;99852.47;3567050;40;14236;-50
2021/05/31 07:15:25;;;;;;;;;4.25;4.25;;;;;15.96;73.47;99850.09;3567867;40;13994;-51
2021/05/31 07:17:53;;;;;;;;;4.75;4.25;;;;;15.71;74.85;99850.34;3569644;40;14039;-53
2021/05/31 07:20:20;;;;;;;;;6.25;5.50;;;;;15.98;74.76;99844.53;3561348;40;14469;-52
2021/05/31 07:22:48;;;;;;;;;6.25;6.25;;;;;15.00;75.67;99860.41;3558123;40;14007;-52
2021/05/31 07:25:19;;;;;;;;;5.75;5.75;;;;;15.54;75.90;99857.06;3558594;40;14183;-54
2021/05/31 07:27:47;;;;;;;;;6.00;6.00;;;;;15.53;75.35;99860.75;3557372;40;13968;-53
2021/05/31 07:30:19;;;;;;;;;8.25;7.00;;;;;15.02;73.64;99853.91;3564869;40;14792;-51
2021/05/31 07:32:47;;;;;;;;;6.50;6.50;;;;;15.21;74.13;99852.47;3567952;40;13966;-53
2021/05/31 07:35:16;;;;;;;;;10.00;7.50;;;;;15.48;73.53;99844.00;3567885;40;14183;-54
2021/05/31 07:37:43;;;;;;;;;9.00;7.50;;;;;15.85;73.01;99841.09;3567105;40;13988;-54
2021/05/31 07:40:15;;;;;;;;;5.50;5.25;;;;;16.00;73.50;99845.25;3568002;40;13972;-51
2021/05/31 07:42:44;;;;;;;;;8.00;5.50;;;;;15.63;73.56;99848.22;3567834;40;14162;-53
2021/05/31 07:45:15;;;;;;;;;6.75;5.75;;;;;15.33;73.58;99846.09;3567736;40;14418;-53
2021/05/31 07:47:42;;;;;;;;;5.25;5.25;;;;;15.68;71.96;99845.13;3565765;40;13957;-52
2021/05/31 07:50:11;;;;;;;;;6.00;6.00;;;;;15.50;72.06;99845.63;3557512;40;14168;-54
2021/05/31 07:52:38;;;;;;;;;10.00;6.50;;;;;15.27;73.08;99843.88;3557867;40;13980;-54
2021/05/31 07:55:11;;;;;;;;;6.00;6.00;;;;;16.44;70.52;99843.44;3557856;40;14007;-52
2021/05/31 07:57:41;;;;;;;;;8.50;7.00;;;;;17.32;66.87;99851.31;3557442;40;13972;-55
2021/05/31 08:00:13;;;;;;;;;5.00;5.00;;;;;17.17;65.71;99847.22;3567583;40;14189;-57
2021/05/31 08:02:44;;;;;;;;;6.75;6.00;;;;;17.01;64.18;99849.50;3566900;40;13297;-56
2021/05/31 08:05:14;;;;;;;;;7.75;7.00;;;;;17.60;65.39;99848.88;3566438;40;13502;-58
2021/05/31 08:07:44;;;;;;;;;6.25;5.00;;;;;17.22;65.54;99844.97;3558845;40;13032;-56
2021/05/31 08:10:13;;;;;;;;;6.75;6.75;;;;;17.76;64.60;99843.81;3557420;40;13041;-56
2021/05/31 08:12:41;;;;;;;;;6.50;6.50;;;;;17.84;63.51;99840.44;3557617;40;12893;-58
2021/05/31 08:15:10;;;;;;;;;8.50;7.00;;;;;18.48;63.58;99847.31;3557769;40;13240;-57
2021/05/31 08:17:38;;;;;;;;;7.25;7.25;;;;;17.78;61.92;99839.09;3565093;40;12936;-57
2021/05/31 08:20:09;;;;;;;;;7.00;7.00;;;;;17.93;61.53;99834.19;3567265;40;12915;-57
2021/05/31 08:22:36;;;;;;;;;9.00;7.00;;;;;18.49;61.93;99824.56;3566785;40;12719;-57
2021/05/31 08:25:05;;;;;;;;;7.50;7.50;;;;;18.60;62.08;99831.75;3564526;40;12667;-57
2021/05/31 08:27:33;;;;;;;;;8.00;6.50;;;;;18.83;58.84;99822.31;3561191;40;12554;-56
2021/05/31 08:30:02;;;;;;;;;7.50;7.00;;;;;18.18;59.17;99827.38;3561284;40;12394;-50
2021/05/31 08:32:30;;;;;;;;;7.25;6.75;;;;;18.24;63.60;99827.81;3563022;40;12420;-56
2021/05/31 08:34:57;;;;;;;;;8.00;8.00;;;;;18.86;60.38;99826.63;3567072;40;12237;-56
2021/05/31 08:37:25;;;;;;;;;8.00;7.00;;;;;18.03;60.19;99828.78;3567365;40;12260;-53
2021/05/31 08:39:54;;;;;;;;;10.25;8.25;;;;;17.44;61.39;99821.38;3567629;40;12473;-57
2021/05/31 08:42:22;;;;;;;;;7.50;7.50;;;;;17.22;58.93;99825.09;3567516;40;12930;-57
2021/05/31 08:44:50;;;;;;;;;8.25;6.75;;;;;17.37;60.13;99815.59;3562508;40;13448;-50
2021/05/31 08:47:17;;;;;;;;;8.50;8.00;;;;;18.54;58.67;99816.84;3557603;40;13024;-56
2021/05/31 08:49:45;;;;;;;;;9.50;5.75;;;;;17.36;61.94;99821.19;3557867;40;13087;-55
2021/05/31 08:52:13;;;;;;;;;7.00;6.00;;;;;18.01;60.38;99819.03;3564951;40;13152;-54
2021/05/31 08:54:40;;;;;;;;;9.00;7.25;;;;;18.00;60.76;99812.75;3564056;40;12784;-52
2021/05/31 08:57:07;;;;;;;;;7.00;5.75;;;;;18.54;59.61;99808.69;3557983;40;12857;-54
2021/05/31 08:59:35;;;;;;;;;9.25;5.50;;;;;18.37;58.26;99820.25;3557494;40;12859;-50
2021/05/31 09:02:03;;;;;;;;;9.50;7.75;;;;;18.02;58.29;99810.75;3557721;40;12674;-56
2021/05/31 09:04:30;;;;;;;;;8.75;6.50;;;;;17.56;60.95;99809.41;3564912;40;12519;-53
2021/05/31 09:07:01;;;;;;;;;7.25;6.00;;;;;17.37;61.67;99812.03;3565248;40;12939;-56
2021/05/31 09:09:43;;;;;;;;;7.50;7.00;;;;;17.19;59.26;99811.78;3567157;40;12626;-51
2021/05/31 09:12:12;;;;;;;;;6.00;5.00;;;;;17.72;60.59;99809.78;3563227;40;12791;-55
2021/05/31 09:14:42;;;;;;;;;9.25;7.00;;;;;18.48;58.17;99801.09;3567271;40;13355;-57
2021/05/31 09:17:09;;;;;;;;;8.25;7.00;;;;;17.65;58.01;99802.31;3564960;40;12662;-57
2021/05/31 09:19:47;;;;;;;;;5.75;4.00;;;;;17.61;60.26;99799.00;3557978;40;13089;-55
2021/05/31 09:22:15;;;;;;;;;6.00;6.00;;;;;17.80;58.80;99800.97;3556940;40;13476;-56
2021/05/31 09:24:56;;;;;;;;;7.75;7.50;;;;;17.60;59.58;99808.16;3557351;40;12790;-57
2021/05/31 09:27:26;;;;;;;;;6.75;6.00;;;;;18.35;59.57;99805.94;3564981;40;12855;-53
2021/05/31 09:30:01;;;;;;;;;9.00;7.75;;;;;17.71;57.79;99801.75;3562100;40;12724;-56
2021/05/31 09:32:28;;;;;;;;;11.00;11.00;;;;;18.46;59.15;99807.66;3556793;40;12663;-58
2021/05/31 09:35:08;;;;;;;;;12.75;10.75;;;;;18.01;59.39;99809.06;3556930;40;13283;-58
2021/05/31 09:37:47;;;;;;;;;7.50;6.00;;;;;17.97;58.69;99802.16;3564844;40;12974;-57
2021/05/31 09:40:26;;;;;;;;;6.00;5.25;;;;;17.52;57.25;99807.97;3557170;40;12914;-57
2021/05/31 09:42:57;;;;;;;;;5.00;5.00;;;;;17.65;55.99;99805.88;3556989;40;12763;-59
2021/05/31 09:45:25;;;;;;;;;7.50;5.50;;;;;17.50;56.81;99799.09;3557171;40;13129;-58
2021/05/31 09:47:57;;;;;;;;;7.00;7.00;;;;;17.93;57.38;99801.59;3556704;40;12865;-54
2021/05/31 09:50:29;;;;;;;;;8.75;7.75;;;;;18.92;54.41;99790.66;3557472;40;13457;-58
2021/05/31 09:53:06;;;;;;;;;8.00;7.50;;;;;18.88;55.16;99791.97;3557190;40;13125;-58
2021/05/31 09:55:44;;;;;;;;;8.00;5.75;;;;;19.46;56.17;99786.38;3556628;40;12464;-58
2021/05/31 09:58:17;;;;;;;;;5.50;5.50;;;;;18.16;54.36;99785.88;3557174;40;12507;-59
2021/05/31 10:00:53;;;;;;;;;8.75;6.00;;;;;17.66;55.10;99783.16;3557181;40;12403;-57
2021/05/31 10:03:25;;;;;;;;;8.00;5.75;;;;;17.98;55.21;99785.75;3556641;40;13052;-59
2021/05/31 10:10:57;;;;;;;;;6.00;6.00;;;;;18.63;51.50;99772.47;3556328;40;12624;-54
2021/05/31 10:13:25;;;;;;;;;5.75;5.75;;;;;19.01;52.24;99772.59;3563968;40;12294;-56
2021/05/31 10:15:53;;;;;;;;;7.00;5.00;;;;;19.65;48.82;99769.09;3556826;40;12401;-58
2021/05/31 10:18:21;;;;;;;;;6.00;6.00;;;;;20.30;50.64;99768.13;3558666;40;12232;-55
2021/05/31 10:20:48;;;;;;;;;5.00;5.00;;;;;19.89;50.63;99771.28;3566361;40;11981;-58
2021/05/31 10:23:16;;;;;;;;;6.00;5.75;;;;;20.02;48.74;99770.06;3566784;40;11304;-57
2021/05/31 10:25:52;;;;;;;;;5.75;5.75;;;;;20.08;48.46;99759.41;3566585;40;11164;-57
2021/05/31 10:28:29;;;;;;;;;6.50;6.00;;;;;20.48;47.91;99763.53;3557312;40;11313;-59
2021/05/31 10:31:04;;;;;;;;;8.00;6.00;;;;;19.77;49.46;99760.75;3556963;40;11326;-60
2021/05/31 10:33:37;;;;;;;;;8.75;8.00;;;;;19.89;49.37;99760.38;3556992;40;10905;-60
2021/05/31 10:36:18;;;;;;;;;8.00;6.50;;;;;19.46;48.95;99756.41;3563421;40;11310;-59
2021/05/31 10:38:50;;;;;;;;;7.00;6.50;;;;;18.75;50.86;99753.34;3557170;40;11707;-54
2021/05/31 10:41:23;;;;;;;;;8.00;7.00;;;;;18.60;53.13;99755.59;3556523;40;11587;-58
2021/05/31 10:43:54;;;;;;;;;6.75;6.75;;;;;18.90;54.95;99751.84;3555843;40;12176;-57
2021/05/31 10:46:35;;;;;;;;;9.25;8.75;;;;;18.78;53.99;99747.59;3557061;40;12005;-60
2021/05/31 10:49:05;;;;;;;;;9.25;7.00;;;;;19.30;51.85;99753.47;3558452;40;12099;-59
2021/05/31 10:51:39;;;;;;;;;9.00;7.25;;;;;19.45;49.40;99751.97;3557392;40;12476;-58
2021/05/31 10:54:15;;;;;;;;;7.25;6.50;;;;;19.67;48.76;99748.03;3557935;40;12019;-62
2021/05/31 10:56:47;;;;;;;;;4.75;4.75;;;;;19.53;50.44;99743.91;3558257;40;11329;-59
2021/05/31 10:59:22;;;;;;;;;6.75;6.75;;;;;19.33;47.92;99739.56;3558421;40;11570;-60
2021/05/31 11:01:50;;;;;;;;;6.75;6.00;;;;;19.86;46.55;99730.72;3558070;40;11797;-59
2021/05/31 11:04:21;;;;;;;;;7.00;6.75;;;;;20.04;46.79;99728.03;3558183;40;11991;-59
2021/05/31 11:06:55;;;;;;;;;5.00;5.00;;;;;19.67;49.35;99728.13;3557718;40;12587;-59
2021/05/31 11:09:34;;;;;;;;;6.25;6.00;;;;;19.94;47.60;99725.34;3557891;40;11876;-59
2021/05/31 11:12:09;;;;;;;;;7.75;7.00;;;;;20.30;47.70;99719.06;3557667;40;12405;-59
2021/05/31 11:14:47;;;;;;;;;6.50;6.50;;;;;20.35;47.72;99706.69;3558284;40;12116;-59
2021/05/31 11:17:17;;;;;;;;;6.75;6.75;;;;;19.73;47.52;99717.47;3558240;40;11193;-59
2021/05/31 11:19:50;;;;;;;;;6.25;6.25;;;;;20.35;50.17;99711.25;3558136;40;11365;-59
2021/05/31 11:22:31;;;;;;;;;7.00;6.50;;;;;20.56;48.24;99711.84;3558193;40;11596;-60
2021/05/31 11:25:08;;;;;;;;;5.00;5.00;;;;;20.11;48.03;99706.44;3557678;40;12060;-60
2021/05/31 11:27:39;;;;;;;;;5.00;5.00;;;;;20.28;48.71;99702.88;3558332;40;12296;-59
2021/05/31 11:30:15;;;;;;;;;6.50;5.50;;;;;20.20;48.58;99702.78;3563521;40;11523;-59
2021/05/31 11:32:42;;;;;;;;;6.00;6.00;;;;;20.05;48.69;99701.63;3564831;40;11476;-59
2021/05/31 11:35:15;;;;;;;;;4.50;4.50;;;;;19.69;47.63;99709.72;3567861;40;11437;-57
2021/05/31 11:38:03;;;;;;;;;6.75;6.75;;;;;19.93;47.03;99710.03;3567702;40;11415;-59
2021/05/31 11:40:36;;;;;;;;;10.75;7.25;;;;;19.82;47.34;99695.75;3563157;40;11437;-59
2021/05/31 11:43:07;;;;;;;;;9.00;7.00;;;;;19.79;47.54;99688.72;3557799;40;11617;-59
2021/05/31 11:45:38;;;;;;;;;5.50;4.00;;;;;19.69;46.94;99691.50;3565386;40;12326;-59
2021/05/31 11:48:15;;;;;;;;;7.75;6.25;;;;;19.56;49.54;99692.84;3557626;40;11855;-61
2021/05/31 11:50:46;;;;;;;;;5.50;5.00;;;;;19.69;49.42;99686.06;3565896;40;11841;-60
2021/05/31 11:53:17;;;;;;;;;4.25;4.25;;;;;20.02;49.64;99688.31;3566988;40;11749;-60
2021/05/31 11:55:45;;;;;;;;;6.00;6.00;;;;;20.48;47.33;99687.16;3567953;40;11566;-60
2021/05/31 11:58:13;;;;;;;;;6.25;6.25;;;;;20.23;46.93;99679.81;3564308;40;11315;-60
2021/05/31 12:00:43;;;;;;;;;5.75;5.75;;;;;20.06;47.68;99673.34;3557504;40;11593;-60
2021/05/31 12:03:25;;;;;;;;;6.50;5.00;;;;;20.64;46.74;99678.28;3557328;40;11767;-59